Accueil
METAR-TAF:

METAR-TAF

Aéroports :

Col de Resia, Italie

latitude: 46-50N, longitude: 010-30E, altitude: 1800 m

Observation

Le bulletin a été fait il y a 1 heure et 0 minutes, à 13:55 UTC
Vent 5 kt de sud
Température 3°C
Humidité 70%
Pression 1016 hPa
Visibilité: 6000 m
Quelques nuages à une hauteur de 2000 ft

METAR: LIVE 261355Z 19005KT 6000 FEW020 03/M02 Q1016 RMK BKN SCT180 VIS MIN 6000

Heure: 15:55 (14:55 UTC)


TAF: absent

Observations et prévisions météorologiques de plus de 4000 aéroports (messages METAR et TAF).

Les stations disponibles sont représentées par des disques jaunes et rouges sur la carte.

Passer la souris dessus pour voir le nom de la station.

Cliquer dessus pour voir les observations et prévisions météorologiques.

Pour changer de carte: cliquez sur les boutons verts avec une croix noire pour zoomer, sur le bouton vert avec un tiret pour effectuer un zoom arrière, ou sur les flèches vertes pour les cartes adjacentes.


METAR-TAF: